Time;durP1;ratioP1;P1;durP2;ratioP2;P2;SDS_P1;SDS_P2;PMS_P1;PMS_P2;Temp;Humidity;BMP_temperature;BMP_pressure;BME280_temperature;BME280_humidity;BME280_pressure;Samples;Min_cycle;Max_cycle;Signal;HPM_P1;HPM_P2
2022/01/31 00:01:35;;;;;;;1.58;1.45;;;4.00;99.90;;;4.24;75.38;101182.00;5048560;28;20208;-70
2022/01/31 00:04:01;;;;;;;2.05;1.95;;;4.10;99.90;;;4.29;75.58;101185.28;5051396;28;20224;-70
2022/01/31 00:06:29;;;;;;;3.17;2.15;;;4.20;99.90;;;4.33;75.49;101171.34;5048546;28;20225;-69
2022/01/31 00:08:55;;;;;;;2.50;1.30;;;4.20;99.90;;;4.37;74.82;101172.06;5050666;28;20216;-70
2022/01/31 00:11:23;;;;;;;1.50;1.40;;;4.20;99.90;;;4.41;74.98;101161.56;5048603;28;20200;-70
2022/01/31 00:13:59;;;;;;;1.75;1.70;;;4.30;99.90;;;4.42;74.84;101160.66;5050934;28;20220;-70
2022/01/31 00:16:32;;;;;;;1.20;1.10;;;4.30;99.90;;;4.39;75.21;101145.28;5039372;28;20321;-69
2022/01/31 00:19:02;;;;;;;1.10;0.98;;;4.30;99.90;;;4.39;74.91;101154.75;5031618;28;20260;-68
2022/01/31 00:21:29;;;;;;;3.30;2.03;;;4.30;99.90;;;4.48;74.98;101151.81;5043028;28;20213;-70
2022/01/31 00:23:56;;;;;;;1.83;1.52;;;4.40;99.90;;;4.53;74.39;101148.19;5049366;28;20344;-68
2022/01/31 00:26:23;;;;;;;1.25;1.00;;;4.40;99.90;;;4.58;74.32;101141.06;5040890;28;20218;-70
2022/01/31 00:28:50;;;;;;;4.47;2.20;;;4.50;99.90;;;4.64;73.97;101129.66;5035206;28;20293;-69
2022/01/31 00:31:17;;;;;;;1.50;1.40;;;4.50;99.90;;;4.64;74.19;101143.41;5035921;28;20642;-69
2022/01/31 00:33:44;;;;;;;1.05;1.00;;;4.50;99.90;;;4.72;73.64;101141.38;5047627;28;20691;-69
2022/01/31 00:36:11;;;;;;;2.55;1.63;;;4.60;99.90;;;4.71;73.46;101105.25;5040817;28;20201;-69
2022/01/31 00:38:38;;;;;;;0.82;0.70;;;4.60;99.90;;;4.65;73.67;101096.00;5048990;28;20209;-69
2022/01/31 00:41:05;;;;;;;0.93;0.90;;;4.60;99.90;;;4.53;74.09;101078.41;5048217;28;20212;-70
2022/01/31 00:43:35;;;;;;;3.13;0.88;;;4.50;99.90;;;4.38;74.70;101055.75;5030721;28;20218;-70
2022/01/31 00:46:09;;;;;;;13.20;1.17;;;4.40;99.90;;;4.46;74.62;101043.38;5029829;28;20251;-69
2022/01/31 00:48:43;;;;;;;0.80;0.80;;;4.30;99.90;;;4.36;75.25;101047.25;5034555;28;20228;-69
2022/01/31 00:51:10;;;;;;;0.60;0.60;;;4.30;99.90;;;4.39;75.11;101036.75;5034529;28;20200;-69
2022/01/31 00:53:37;;;;;;;1.35;0.90;;;4.30;99.90;;;4.31;75.34;101025.91;5030060;28;20289;-70
2022/01/31 00:56:04;;;;;;;1.50;1.13;;;4.20;99.90;;;4.16;76.39;101012.75;5041235;28;20202;-69
2022/01/31 00:58:31;;;;;;;2.13;1.20;;;4.10;99.90;;;4.18;76.54;101016.94;5042234;28;20280;-69
2022/01/31 01:00:58;;;;;;;1.27;1.27;;;4.00;99.90;;;4.13;76.39;101012.88;5048417;28;20224;-68
2022/01/31 01:03:25;;;;;;;0.82;0.75;;;4.00;99.90;;;3.99;77.57;100989.31;5048165;28;20220;-69
2022/01/31 01:05:53;;;;;;;1.75;1.30;;;3.90;99.90;;;4.03;77.89;100955.59;5048025;28;20293;-69
2022/01/31 01:08:20;;;;;;;0.40;0.40;;;3.90;99.90;;;4.09;77.39;100939.03;5049471;28;20225;-69
2022/01/31 01:10:48;;;;;;;2.92;1.75;;;4.00;99.90;;;3.94;78.31;100933.56;5048774;28;20193;-69
2022/01/31 01:13:15;;;;;;;0.68;0.68;;;3.90;99.90;;;3.88;78.76;100915.72;5054262;28;20216;-68
2022/01/31 01:15:41;;;;;;;0.35;0.35;;;3.90;99.90;;;3.93;78.71;100905.22;5053117;28;20212;-68
2022/01/31 01:18:09;;;;;;;1.17;1.17;;;3.80;99.90;;;4.01;78.45;100905.75;5052362;28;20286;-68
2022/01/31 01:20:36;;;;;;;3.03;1.40;;;3.90;99.90;;;3.98;77.85;100900.72;5040437;28;20221;-69
2022/01/31 01:23:03;;;;;;;4.93;1.42;;;3.90;99.90;;;4.01;77.91;100889.41;5034006;28;20206;-69
2022/01/31 01:25:32;;;;;;;1.25;1.20;;;3.90;99.90;;;4.20;77.39;100862.78;5045294;28;20204;-68
2022/01/31 01:28:00;;;;;;;2.40;0.65;;;4.00;99.90;;;4.23;77.18;100854.91;5052916;28;20312;-68
2022/01/31 01:30:27;;;;;;;2.50;0.77;;;4.10;99.90;;;4.00;77.97;100847.28;5052728;28;20268;-69
2022/01/31 01:35:31;;;;;;;1.00;0.70;;;3.90;99.90;;;3.94;78.67;100843.19;5042936;28;20288;-68
2022/01/31 01:38:04;;;;;;;0.45;0.45;;;3.90;99.90;;;3.98;78.47;100838.78;5045764;28;20312;-69
2022/01/31 01:40:34;;;;;;;0.70;0.70;;;3.90;99.90;;;3.99;78.70;100847.31;5053532;28;20190;-68
2022/01/31 01:43:01;;;;;;;0.50;0.50;;;3.90;99.90;;;3.98;78.71;100843.94;5050975;28;20208;-69
2022/01/31 01:45:28;;;;;;;2.28;0.68;;;3.90;99.90;;;4.02;78.61;100832.56;5035755;28;20197;-69
2022/01/31 01:47:55;;;;;;;2.25;1.80;;;3.90;99.90;;;4.02;78.27;100803.31;5046009;28;20246;-69
2022/01/31 01:50:22;;;;;;;0.40;0.40;;;4.00;99.90;;;4.06;78.75;100785.06;5036678;28;20198;-69
2022/01/31 01:52:52;;;;;;;1.27;1.25;;;3.90;99.90;;;4.09;78.06;100779.75;5053731;28;20211;-69
2022/01/31 01:55:20;;;;;;;7.93;0.40;;;4.00;99.90;;;4.06;78.00;100763.56;5053735;28;20212;-69
2022/01/31 01:57:47;;;;;;;1.48;1.00;;;4.00;99.90;;;4.10;78.13;100745.28;5036331;28;20573;-69
2022/01/31 02:00:26;;;;;;;1.42;0.52;;;4.00;99.90;;;4.07;78.35;100734.28;5054352;28;20215;-69
2022/01/31 02:02:54;;;;;;;0.70;0.70;;;4.00;99.90;;;4.04;77.95;100735.22;5038234;28;20205;-69
2022/01/31 02:05:23;;;;;;;4.03;1.25;;;4.00;99.90;;;4.12;78.02;100709.06;5044533;28;20221;-69
2022/01/31 02:07:50;;;;;;;14.43;1.48;;;4.00;99.90;;;4.05;78.63;100698.16;5035241;28;20300;-69
2022/01/31 02:10:17;;;;;;;0.70;0.70;;;3.90;99.90;;;3.88;79.52;100678.25;5052889;28;20304;-69
2022/01/31 02:12:47;;;;;;;0.73;0.73;;;3.90;99.90;;;4.00;79.11;100682.06;5053052;28;20292;-69
2022/01/31 02:15:16;;;;;;;1.48;1.30;;;3.90;99.90;;;4.12;78.63;100691.84;5053304;28;20610;-69
2022/01/31 02:17:43;;;;;;;0.47;0.35;;;4.00;99.90;;;4.09;78.26;100679.03;5053004;28;20222;-69
2022/01/31 02:20:10;;;;;;;0.88;0.88;;;4.00;99.90;;;4.02;78.64;100676.81;5036224;28;20233;-69
2022/01/31 02:22:37;;;;;;;0.35;0.35;;;4.00;99.90;;;4.09;78.32;100667.91;5053022;28;20205;-69
2022/01/31 02:25:05;;;;;;;0.75;0.75;;;4.00;99.90;;;4.05;78.81;100659.44;5041866;28;20233;-69
2022/01/31 02:27:36;;;;;;;0.95;0.90;;;4.00;99.90;;;4.01;79.03;100651.88;5052584;28;20225;-69
2022/01/31 02:30:07;;;;;;;1.05;0.65;;;3.90;99.90;;;4.05;78.61;100648.25;5032822;28;20209;-69
2022/01/31 02:32:35;;;;;;;3.42;0.82;;;3.90;99.90;;;4.16;78.86;100646.88;5045604;28;20284;-69
2022/01/31 02:35:04;;;;;;;0.32;0.32;;;4.00;99.90;;;4.10;78.54;100617.91;5052825;28;20292;-69
2022/01/31 02:37:32;;;;;;;0.82;0.82;;;4.00;99.90;;;4.04;79.03;100594.97;5051569;28;20316;-69
2022/01/31 02:39:59;;;;;;;0.75;0.75;;;4.00;99.90;;;4.08;79.26;100571.53;5049477;28;20288;-69
2022/01/31 02:42:27;;;;;;;0.63;0.63;;;4.00;99.90;;;3.95;79.77;100552.34;5050158;28;20322;-69
2022/01/31 02:44:54;;;;;;;2.70;1.25;;;3.90;99.90;;;4.10;78.89;100559.38;5039873;28;20233;-69
2022/01/31 02:47:25;;;;;;;0.60;0.57;;;4.00;99.90;;;4.13;78.88;100553.25;5032758;28;20768;-69
2022/01/31 02:49:59;;;;;;;0.85;0.85;;;4.00;99.90;;;4.19;78.79;100532.28;5030947;28;20289;-69
2022/01/31 02:52:31;;;;;;;1.50;0.60;;;4.10;99.90;;;4.22;79.00;100522.63;5032733;28;20221;-69
2022/01/31 02:54:58;;;;;;;0.70;0.60;;;4.10;99.90;;;4.19;78.80;100521.97;5044931;28;20255;-68
2022/01/31 02:57:26;;;;;;;9.57;1.25;;;4.10;99.90;;;4.29;78.62;100523.19;5052320;28;20320;-69
2022/01/31 02:59:53;;;;;;;1.13;1.08;;;4.10;99.90;;;4.37;78.45;100558.06;5039073;28;20725;-69
2022/01/31 03:02:20;;;;;;;0.70;0.70;;;4.20;99.90;;;4.42;78.52;100563.88;5049072;28;20207;-69
2022/01/31 03:04:47;;;;;;;0.80;0.65;;;4.30;99.90;;;4.39;78.53;100582.09;5044524;28;20221;-68
2022/01/31 03:07:14;;;;;;;1.30;1.10;;;4.30;99.90;;;4.48;78.09;100584.25;5031980;28;20228;-69
2022/01/31 03:09:41;;;;;;;1.55;0.70;;;4.30;99.90;;;4.55;78.15;100564.13;5034121;28;20213;-67
2022/01/31 03:12:09;;;;;;;5.22;1.55;;;4.40;99.90;;;4.68;77.31;100550.50;5036872;28;20201;-69
2022/01/31 03:14:36;;;;;;;2.03;1.80;;;4.50;99.90;;;4.74;77.28;100549.38;5030014;28;20206;-66
2022/01/31 03:17:05;;;;;;;2.45;1.70;;;4.60;99.90;;;4.72;77.18;100539.13;5031517;28;20232;-69
2022/01/31 03:19:33;;;;;;;3.90;1.67;;;4.60;99.90;;;4.74;77.47;100541.63;5045715;28;20205;-69
2022/01/31 03:21:59;;;;;;;3.38;1.60;;;4.60;99.90;;;4.80;77.20;100537.91;5052410;28;20212;-69
2022/01/31 03:24:26;;;;;;;1.40;1.30;;;4.70;99.90;;;4.90;77.11;100547.69;5041738;28;20233;-68
2022/01/31 03:26:53;;;;;;;1.48;1.38;;;4.80;99.90;;;4.88;77.27;100528.00;5031595;28;20214;-69
2022/01/31 03:29:20;;;;;;;2.75;1.70;;;4.80;99.90;;;4.95;77.01;100529.38;5037441;28;20197;-69
2022/01/31 03:31:47;;;;;;;1.52;1.48;;;4.80;99.90;;;5.02;76.96;100523.84;5033095;28;20646;-69
2022/01/31 03:34:14;;;;;;;2.17;2.00;;;4.90;99.90;;;4.96;77.35;100512.97;5050393;28;20201;-68
2022/01/31 03:36:42;;;;;;;5.10;1.90;;;4.90;99.90;;;5.00;77.37;100504.13;5051461;28;20320;-69
2022/01/31 03:39:10;;;;;;;3.60;1.60;;;4.90;99.90;;;5.06;77.47;100493.47;5052384;28;20248;-69
2022/01/31 03:41:37;;;;;;;1.27;1.27;;;4.90;99.90;;;5.07;77.12;100497.75;5052277;28;20209;-69
2022/01/31 03:44:04;;;;;;;1.80;1.50;;;5.00;99.90;;;5.11;76.98;100484.56;5038998;28;20229;-69
2022/01/31 03:46:34;;;;;;;1.67;1.13;;;5.00;99.90;;;5.10;76.74;100467.38;5047028;28;20251;-69
2022/01/31 03:49:01;;;;;;;3.38;2.30;;;5.00;99.90;;;5.13;76.97;100456.03;5050806;28;20193;-68
2022/01/31 03:51:28;;;;;;;1.65;1.55;;;4.90;99.90;;;5.11;76.63;100448.34;5040316;28;20202;-69
2022/01/31 03:53:56;;;;;;;7.15;2.20;;;5.00;99.90;;;5.07;76.88;100433.09;5031422;28;20205;-69
2022/01/31 03:56:23;;;;;;;2.15;1.63;;;4.90;99.90;;;5.09;76.26;100408.00;5044725;28;20697;-69
2022/01/31 03:58:50;;;;;;;2.83;1.83;;;5.00;99.90;;;5.12;76.43;100400.06;5048184;28;20197;-68
2022/01/31 04:01:17;;;;;;;8.00;2.10;;;5.00;99.90;;;5.24;75.66;100391.63;5042402;28;20193;-69
2022/01/31 04:03:44;;;;;;;2.58;1.67;;;5.10;99.90;;;5.20;75.87;100379.78;5047739;28;20189;-69
2022/01/31 04:06:11;;;;;;;1.35;1.25;;;5.10;99.90;;;5.31;75.17;100361.94;5048649;28;20205;-68
2022/01/31 04:08:38;;;;;;;6.22;2.65;;;5.10;99.90;;;5.30;75.21;100340.41;5047319;28;20216;-68
2022/01/31 04:11:06;;;;;;;3.10;2.45;;;5.20;99.90;;;5.30;75.22;100326.66;5050480;28;20254;-69
2022/01/31 04:13:33;;;;;;;4.60;2.63;;;5.10;99.90;;;5.32;75.39;100340.34;5050966;28;20288;-69
2022/01/31 04:15:59;;;;;;;8.40;2.40;;;5.20;99.90;;;5.35;74.58;100334.97;5051381;28;20204;-68
2022/01/31 04:18:26;;;;;;;5.50;2.70;;;5.10;99.90;;;5.39;75.00;100334.72;5032278;28;20206;-66
2022/01/31 04:20:54;;;;;;;3.20;2.45;;;5.20;99.90;;;5.45;74.97;100325.81;5048661;28;20300;-69
2022/01/31 04:23:23;;;;;;;3.08;2.63;;;5.20;99.90;;;5.57;74.19;100313.91;5050282;28;20209;-69
2022/01/31 04:28:33;;;;;;;8.45;2.70;;;5.50;99.90;;;5.65;73.51;100307.38;5031296;28;20217;-69
2022/01/31 04:31:12;;;;;;;1.90;1.80;;;5.50;99.90;;;5.69;73.87;100303.69;5046362;28;20564;-69
2022/01/31 04:33:41;;;;;;;3.05;2.60;;;5.50;99.90;;;5.73;74.08;100291.44;5030062;28;20187;-69
2022/01/31 04:36:10;;;;;;;5.72;2.63;;;5.50;99.90;;;5.74;74.21;100277.56;5035610;28;20213;-68
2022/01/31 04:38:37;;;;;;;2.97;2.15;;;5.60;99.90;;;5.73;73.67;100260.38;5030804;28;20198;-69
2022/01/31 04:41:04;;;;;;;2.65;1.60;;;5.60;99.90;;;5.76;73.35;100245.50;5034567;28;20397;-69
2022/01/31 04:43:32;;;;;;;5.50;2.42;;;5.60;99.90;;;5.80;73.42;100231.44;5048267;28;20196;-69
2022/01/31 04:46:02;;;;;;;3.83;2.17;;;5.60;99.90;;;5.84;73.69;100224.34;5049106;28;20231;-69
2022/01/31 04:48:29;;;;;;;1.73;1.60;;;5.70;99.90;;;5.78;73.64;100212.56;5052664;28;20208;-68
2022/01/31 04:50:56;;;;;;;6.18;2.90;;;5.60;99.90;;;5.78;73.52;100202.22;5054270;28;20205;-68
2022/01/31 04:53:24;;;;;;;3.80;2.38;;;5.60;99.90;;;5.78;73.68;100212.56;5051361;28;20268;-69
2022/01/31 04:55:51;;;;;;;4.82;2.92;;;5.60;99.90;;;5.83;73.89;100195.03;5040125;28;20216;-68
2022/01/31 04:58:22;;;;;;;4.43;2.40;;;5.70;99.90;;;5.84;73.24;100199.31;5033385;28;20701;-69
2022/01/31 05:00:50;;;;;;;2.67;2.47;;;5.70;99.90;;;5.91;73.52;100176.47;5037784;28;20276;-69
2022/01/31 05:03:19;;;;;;;5.70;2.38;;;5.70;99.90;;;5.87;73.74;100182.75;5061098;28;20302;-69
2022/01/31 05:05:47;;;;;;;4.10;2.97;;;5.70;99.90;;;5.79;73.68;100169.41;5059790;28;20225;-69
2022/01/31 05:08:15;;;;;;;2.45;1.98;;;5.70;99.90;;;5.85;73.50;100149.19;5050145;28;20231;-69
2022/01/31 05:10:48;;;;;;;5.50;2.13;;;5.70;99.90;;;5.85;73.75;100138.84;5048759;28;20815;-69
2022/01/31 05:13:16;;;;;;;8.05;2.53;;;5.70;99.90;;;5.90;74.05;100131.63;5047671;28;20202;-69
2022/01/31 05:15:45;;;;;;;5.03;2.20;;;5.70;99.90;;;5.90;75.01;100134.19;5059020;28;20205;-69
2022/01/31 05:18:13;;;;;;;5.85;2.63;;;5.70;99.90;;;5.87;75.66;100129.22;5057649;28;20217;-69
2022/01/31 05:20:40;;;;;;;4.97;3.05;;;5.80;99.90;;;5.90;76.62;100134.19;5042262;28;20580;-69
2022/01/31 05:23:08;;;;;;;4.25;2.38;;;5.80;99.90;;;5.94;76.46;100120.16;5036274;28;20202;-69
2022/01/31 05:25:36;;;;;;;9.88;3.00;;;5.80;99.90;;;5.93;76.46;100122.84;5052634;28;20213;-69
2022/01/31 05:28:04;;;;;;;1.90;1.60;;;5.80;99.90;;;5.87;76.99;100111.09;5050448;28;20221;-69
2022/01/31 05:30:31;;;;;;;3.10;1.40;;;5.70;99.90;;;5.81;78.32;100119.22;5047703;28;20209;-69
2022/01/31 05:32:58;;;;;;;3.78;1.40;;;5.70;99.90;;;5.86;78.44;100117.19;5042680;28;20198;-69
2022/01/31 05:35:25;;;;;;;0.95;0.65;;;5.70;99.90;;;5.93;78.98;100108.13;5033167;28;20204;-68
2022/01/31 05:37:52;;;;;;;0.93;0.93;;;5.80;99.90;;;5.91;78.66;100110.00;5039608;28;20774;-69
2022/01/31 05:40:19;;;;;;;1.95;1.60;;;5.80;99.90;;;5.97;78.81;100109.59;5049091;28;20202;-70
2022/01/31 05:42:46;;;;;;;4.40;1.40;;;5.80;99.90;;;5.92;79.22;100106.47;5033574;28;20202;-68
2022/01/31 05:45:13;;;;;;;5.72;2.00;;;5.80;99.90;;;6.01;80.26;100111.09;5032311;28;20321;-69
2022/01/31 05:47:40;;;;;;;0.45;0.45;;;5.90;99.90;;;5.96;80.80;100123.47;5033363;28;20735;-70
2022/01/31 05:50:08;;;;;;;1.95;1.75;;;5.80;99.90;;;6.02;80.12;100128.28;5034595;28;20293;-70
2022/01/31 05:52:35;;;;;;;1.70;1.40;;;5.90;99.90;;;6.03;80.63;100135.13;5046430;28;20843;-69
2022/01/31 05:55:02;;;;;;;1.65;1.55;;;5.80;99.90;;;5.91;81.78;100115.16;5032007;28;20254;-69
2022/01/31 05:57:32;;;;;;;1.48;1.38;;;5.80;99.90;;;6.00;81.09;100122.38;5037836;28;20705;-69
2022/01/31 06:00:00;;;;;;;0.47;0.47;;;5.80;99.90;;;5.97;81.60;100108.78;5049055;28;20648;-69
2022/01/31 06:02:27;;;;;;;2.42;1.40;;;5.90;99.90;;;5.91;82.19;100124.69;5044669;28;20209;-69
2022/01/31 06:04:54;;;;;;;1.05;1.05;;;5.80;99.90;;;5.94;81.30;100125.31;5045651;28;20942;-69
2022/01/31 06:07:21;;;;;;;6.82;2.25;;;5.90;99.90;;;5.99;81.21;100123.28;5033045;28;20593;-69
2022/01/31 06:09:48;;;;;;;1.45;1.00;;;5.80;99.90;;;6.01;81.52;100113.66;5031123;28;20210;-69
2022/01/31 06:12:16;;;;;;;0.60;0.60;;;5.80;99.90;;;5.95;81.95;100113.22;5038485;28;20214;-69
2022/01/31 06:14:43;;;;;;;1.00;1.00;;;5.80;99.90;;;5.98;82.36;100120.81;5035039;28;20237;-69
2022/01/31 06:17:10;;;;;;;1.00;0.95;;;5.80;99.90;;;5.94;83.21;100120.16;5033025;28;20251;-70
2022/01/31 06:19:37;;;;;;;1.23;1.08;;;5.80;99.90;;;5.79;82.93;100118.44;5032881;28;20238;-70
2022/01/31 06:22:06;;;;;;;0.30;0.30;;;5.80;99.90;;;5.85;83.11;100128.50;5032197;28;20297;-67
2022/01/31 06:24:33;;;;;;;1.00;0.60;;;5.70;99.90;;;5.84;83.48;100119.03;5051837;28;20201;-69
2022/01/31 06:27:00;;;;;;;2.75;1.60;;;5.70;99.90;;;5.94;82.94;100121.94;5051498;28;20257;-69
2022/01/31 06:29:27;;;;;;;1.20;1.10;;;5.70;99.90;;;5.90;83.49;100108.31;5039903;28;20205;-69
2022/01/31 06:31:54;;;;;;;0.60;0.60;;;5.70;99.90;;;5.79;84.35;100125.41;5052169;28;20189;-69
2022/01/31 06:34:21;;;;;;;0.85;0.85;;;5.60;99.90;;;5.87;83.69;100121.47;5047722;28;20228;-70
2022/01/31 06:36:48;;;;;;;0.35;0.35;;;5.70;99.90;;;5.83;83.82;100119.94;5031553;28;20218;-69
2022/01/31 06:39:15;;;;;;;4.20;0.73;;;5.70;99.90;;;5.77;84.01;100114.31;5032463;28;20209;-70
2022/01/31 06:41:42;;;;;;;0.57;0.57;;;5.70;99.90;;;5.79;84.07;100115.84;5036031;28;20198;-69
2022/01/31 06:44:09;;;;;;;1.08;1.08;;;5.60;99.90;;;5.76;84.80;100110.88;5038137;28;20576;-69
2022/01/31 06:46:36;;;;;;;1.95;1.10;;;5.60;99.90;;;5.79;83.81;100105.50;5050328;28;20304;-70
2022/01/31 06:49:03;;;;;;;0.50;0.50;;;5.60;99.90;;;5.82;84.00;100105.34;5029714;28;20190;-69
2022/01/31 06:51:30;;;;;;;0.70;0.60;;;5.60;99.90;;;5.80;84.18;100091.66;5035128;28;20195;-69
2022/01/31 06:54:00;;;;;;;0.50;0.50;;;5.70;99.90;;;5.83;83.61;100109.59;5032325;28;20237;-69
2022/01/31 06:56:37;;;;;;;1.67;0.80;;;5.70;99.90;;;5.90;83.18;100108.31;5031184;28;20287;-67
2022/01/31 06:59:04;;;;;;;0.40;0.40;;;5.70;99.90;;;5.87;83.51;100103.34;5050783;28;20212;-69
2022/01/31 07:01:32;;;;;;;0.40;0.40;;;5.70;99.90;;;5.85;83.02;100112.13;5044910;28;20212;-70
2022/01/31 07:03:59;;;;;;;0.70;0.70;;;5.70;99.90;;;5.90;82.81;100116.06;5043026;28;20194;-70
2022/01/31 07:06:26;;;;;;;0.75;0.63;;;5.80;99.90;;;5.97;83.04;100117.38;5038788;28;20702;-68
2022/01/31 07:08:54;;;;;;;0.40;0.40;;;5.80;99.90;;;5.93;82.59;100113.31;5051836;28;20216;-69
2022/01/31 07:11:26;;;;;;;0.80;0.80;;;5.70;99.90;;;5.94;82.07;100111.56;5041575;28;20194;-69
2022/01/31 07:14:08;;;;;;;0.90;0.90;;;5.80;99.90;;;6.00;81.38;100103.41;5041715;28;20277;-69
2022/01/31 07:16:35;;;;;;;0.40;0.40;;;5.80;99.90;;;5.98;80.95;100103.53;5040593;28;20222;-69
2022/01/31 07:19:06;;;;;;;0.40;0.40;;;5.80;99.90;;;6.04;81.12;100105.72;5031593;28;20206;-69
2022/01/31 07:21:44;;;;;;;0.52;0.52;;;5.80;99.90;;;6.05;80.66;100106.53;5049819;28;20210;-69
2022/01/31 07:26:47;;;;;;;0.90;0.90;;;5.80;99.90;;;5.91;81.25;100107.41;5035057;28;20288;-69
2022/01/31 07:29:14;;;;;;;0.65;0.57;;;5.70;99.90;;;5.85;81.48;100110.38;5027272;28;20243;-69
2022/01/31 07:31:42;;;;;;;0.50;0.50;;;5.60;99.90;;;5.87;81.12;100116.28;5031337;28;20727;-69
2022/01/31 07:34:09;;;;;;;0.80;0.80;;;5.60;99.90;;;5.92;81.38;100114.22;5030773;28;20212;-69
2022/01/31 07:36:36;;;;;;;0.55;0.55;;;5.70;99.90;;;5.85;81.35;100115.53;5049997;28;20227;-69
2022/01/31 07:39:04;;;;;;;0.50;0.50;;;5.60;99.90;;;5.77;82.09;100117.72;5049569;28;20301;-69
2022/01/31 07:41:32;;;;;;;0.40;0.40;;;5.60;99.90;;;5.80;81.82;100114.94;5031474;28;20238;-69
2022/01/31 07:43:59;;;;;;;0.40;0.40;;;5.70;99.90;;;5.94;81.28;100121.94;5030915;28;20293;-68
2022/01/31 07:46:27;;;;;;;0.88;0.88;;;5.80;99.90;;;5.98;81.56;100121.66;5030109;28;20248;-69
2022/01/31 07:48:54;;;;;;;0.98;0.93;;;5.80;99.90;;;6.01;81.09;100113.66;5030917;28;20262;-69
2022/01/31 07:51:22;;;;;;;0.77;0.60;;;5.90;99.90;;;6.24;80.25;100107.91;5031771;28;20216;-69
2022/01/31 07:53:49;;;;;;;0.50;0.50;;;6.10;99.90;;;6.48;79.09;100117.66;5051530;28;20186;-69
2022/01/31 07:56:17;;;;;;;1.85;1.23;;;6.30;99.90;;;6.50;79.20;100116.63;5044266;28;20566;-66
2022/01/31 07:58:44;;;;;;;0.60;0.60;;;6.40;99.90;;;6.49;79.61;100116.75;5050464;28;20229;-69
2022/01/31 08:01:11;;;;;;;1.47;0.73;;;6.40;99.90;;;6.46;79.50;100117.75;5040980;28;20214;-68
2022/01/31 08:03:39;;;;;;;0.57;0.57;;;6.40;99.90;;;6.49;79.09;100121.91;5034263;28;20612;-69
2022/01/31 08:06:06;;;;;;;1.20;0.75;;;6.40;99.90;;;6.73;78.59;100115.19;5040724;28;20665;-66
2022/01/31 08:08:35;;;;;;;0.30;0.30;;;6.60;99.90;;;6.98;77.32;100107.47;5028924;28;20209;-69
2022/01/31 08:11:04;;;;;;;0.87;0.87;;;6.90;99.90;;;7.30;76.32;100094.97;5030031;28;20684;-69
2022/01/31 08:13:35;;;;;;;0.60;0.60;;;7.30;99.90;;;7.51;75.64;100096.97;5043325;28;20636;-69
2022/01/31 08:18:43;;;;;;;0.47;0.47;;;8.60;99.90;;;9.15;68.87;100089.50;5031742;28;20649;-69
2022/01/31 08:21:12;;;;;;;1.53;1.07;;;9.50;99.90;;;9.48;66.73;100085.25;5033932;28;20623;-70
2022/01/31 08:23:41;;;;;;;0.83;0.70;;;10.30;99.90;;;9.81;64.61;100104.38;5042158;28;21080;-67
2022/01/31 08:26:12;;;;;;;0.87;0.63;;;10.40;99.90;;;9.45;66.40;100094.16;5037116;28;20745;-69
2022/01/31 08:28:43;;;;;;;0.83;0.83;;;9.90;99.90;;;8.86;68.91;100085.59;5030799;28;20611;-66
2022/01/31 08:31:24;;;;;;;1.10;1.10;;;9.20;99.90;;;8.55;70.34;100075.75;5044409;28;20624;-69
2022/01/31 08:36:27;;;;;;;1.10;1.00;;;8.30;99.90;;;8.07;72.31;100064.44;5027692;28;21211;-69
2022/01/31 08:38:55;;;;;;;0.93;0.93;;;8.10;99.90;;;7.86;73.58;100067.75;5027794;28;21275;-68
2022/01/31 08:41:24;;;;;;;1.00;1.00;;;7.90;99.90;;;7.66;74.96;100061.31;5038068;28;20624;-69
2022/01/31 08:43:51;;;;;;;1.23;1.23;;;7.70;99.90;;;7.68;75.22;100055.09;5038184;28;20643;-66
2022/01/31 08:46:18;;;;;;;0.83;0.83;;;7.70;99.90;;;7.55;74.95;100049.09;5030022;28;21191;-69
2022/01/31 08:48:46;;;;;;;0.73;0.73;;;7.60;99.90;;;7.45;74.90;100042.84;5041264;28;20723;-70
2022/01/31 08:51:12;;;;;;;0.93;0.73;;;7.50;99.90;;;7.66;74.58;100040.56;5043269;28;20643;-69
2022/01/31 08:53:39;;;;;;;0.80;0.80;;;7.60;99.90;;;7.47;74.99;100043.59;5049242;28;20706;-70
2022/01/31 08:56:12;;;;;;;1.60;1.20;;;7.50;99.90;;;7.50;73.99;100026.97;5033427;28;20651;-70
2022/01/31 08:58:45;;;;;;;0.40;0.40;;;7.50;99.90;;;7.48;73.90;100019.28;5047865;28;20731;-70
2022/01/31 09:01:17;;;;;;;1.30;1.20;;;7.50;99.90;;;7.36;74.79;100016.69;5029776;28;21214;-70
2022/01/31 09:06:22;;;;;;;1.57;1.50;;;7.30;99.90;;;7.32;75.62;100010.91;5036484;28;20683;-70
2022/01/31 09:08:49;;;;;;;1.30;1.20;;;7.30;99.90;;;7.32;75.98;100000.53;5037565;28;20646;-70
2022/01/31 09:11:17;;;;;;;1.80;1.40;;;7.20;99.90;;;7.29;74.61;100010.25;5034610;28;20659;-69
2022/01/31 09:13:45;;;;;;;0.70;0.70;;;7.20;99.90;;;7.28;75.90;100012.03;5030960;28;20604;-70
2022/01/31 09:16:12;;;;;;;0.83;0.67;;;7.20;99.90;;;7.23;76.41;100008.09;5032667;28;20637;-69
2022/01/31 09:18:40;;;;;;;0.80;0.60;;;7.20;99.90;;;7.31;74.88;100016.16;5041917;28;21137;-68
2022/01/31 09:21:07;;;;;;;1.00;1.00;;;7.30;99.90;;;7.53;74.52;100013.78;5036994;28;20643;-70
2022/01/31 09:23:34;;;;;;;0.77;0.77;;;7.40;99.90;;;7.45;74.81;100006.50;5030350;28;20660;-68
2022/01/31 09:26:01;;;;;;;2.73;1.10;;;7.40;99.90;;;7.48;73.92;100008.91;5026771;28;20668;-69
2022/01/31 09:28:28;;;;;;;0.90;0.90;;;7.50;99.90;;;7.54;73.33;100005.88;5044072;28;20635;-70
2022/01/31 09:30:55;;;;;;;1.10;1.10;;;7.50;99.90;;;7.49;73.63;99997.59;5042849;28;20714;-69
2022/01/31 09:33:25;;;;;;;0.27;0.27;;;7.40;99.90;;;7.49;72.50;100001.94;5038585;28;20635;-70
2022/01/31 09:35:53;;;;;;;1.00;1.00;;;7.40;99.90;;;7.63;71.61;99994.84;5042787;28;20631;-69
2022/01/31 09:38:23;;;;;;;1.43;0.70;;;7.60;99.90;;;7.64;71.62;99998.28;5039832;28;20726;-69
2022/01/31 09:40:54;;;;;;;0.87;0.87;;;7.60;99.90;;;7.67;71.70;100004.09;5041241;28;20642;-69
2022/01/31 09:48:40;;;;;;;0.50;0.50;;;7.90;99.90;;;8.03;69.27;100005.06;5033352;28;20636;-70
2022/01/31 09:51:16;;;;;;;0.50;0.50;;;8.00;99.90;;;8.11;69.72;100008.75;5038601;28;20642;-69
2022/01/31 09:53:50;;;;;;;1.97;0.60;;;8.10;99.90;;;8.15;69.65;100017.16;5035432;28;20604;-69
2022/01/31 09:56:24;;;;;;;0.50;0.40;;;8.10;99.90;;;8.21;68.71;100011.50;5032171;28;20636;-68
2022/01/31 09:58:55;;;;;;;0.50;0.33;;;8.20;99.90;;;8.33;68.81;100036.66;5040130;28;21230;-69
2022/01/31 10:01:34;;;;;;;0.43;0.43;;;8.30;99.90;;;8.23;69.01;100031.25;5042775;28;21277;-69
2022/01/31 10:04:17;;;;;;;0.50;0.50;;;8.40;99.90;;;8.33;68.97;100032.28;5032048;28;21203;-70
2022/01/31 10:06:50;;;;;;;1.13;0.63;;;8.30;99.90;;;8.13;69.52;100024.22;5034992;28;21254;-69
2022/01/31 10:09:25;;;;;;;3.07;1.10;;;8.20;99.90;;;8.17;70.42;100028.28;5034090;28;20984;-69
2022/01/31 10:12:05;;;;;;;0.30;0.30;;;8.10;99.90;;;8.29;69.14;100036.03;5040398;28;21035;-69
2022/01/31 10:17:30;;;;;;;0.40;0.40;;;8.20;99.90;;;8.39;69.26;100031.03;5034882;28;20751;-70
2022/01/31 10:20:10;;;;;;;0.70;0.70;;;8.30;99.90;;;8.38;69.49;100024.16;5034927;28;20660;-70
2022/01/31 10:22:38;;;;;;;0.63;0.63;;;8.40;99.90;;;8.36;69.23;100016.47;5035381;28;20639;-70
2022/01/31 10:25:14;;;;;;;0.57;0.57;;;8.40;99.90;;;8.37;69.66;100019.88;5044587;28;20622;-69
2022/01/31 10:28:19;;;;;;;0.40;0.40;;;8.40;99.90;;;8.47;68.81;100007.91;5047236;28;21104;-69
2022/01/31 10:30:48;;;;;;;0.60;0.60;;;8.50;99.90;;;8.58;69.16;100013.94;5038875;28;21049;-70
2022/01/31 10:33:18;;;;;;;0.73;0.73;;;8.50;99.90;;;8.59;69.28;100018.22;5049998;28;20635;-70
2022/01/31 10:35:45;;;;;;;0.73;0.73;;;8.60;99.90;;;8.60;68.35;100011.25;5043288;28;20711;-69
2022/01/31 10:38:16;;;;;;;0.70;0.70;;;8.50;99.90;;;8.72;68.53;100006.91;5039182;28;20663;-70
2022/01/31 10:52:03;;;;;;;2.77;0.87;;;8.60;99.90;;;8.58;67.87;100011.34;5030957;28;21133;-69
2022/01/31 10:57:14;;;;;;;2.80;0.70;;;8.60;99.90;;;8.46;68.04;100006.22;5037292;28;20699;-68
2022/01/31 10:59:46;;;;;;;1.10;0.73;;;8.50;99.90;;;8.49;67.87;100013.81;5037239;28;20625;-68
2022/01/31 11:02:26;;;;;;;0.93;0.93;;;8.50;99.90;;;8.52;68.06;100013.56;5043696;28;20706;-69
2022/01/31 11:04:54;;;;;;;1.03;0.60;;;8.50;99.90;;;8.47;68.84;100010.50;5049766;28;20654;-68
2022/01/31 11:07:26;;;;;;;0.40;0.40;;;8.40;99.90;;;8.57;68.46;100008.88;5051025;28;21230;-68
2022/01/31 11:09:54;;;;;;;0.80;0.60;;;8.60;99.90;;;8.52;68.08;100017.00;5038262;28;20635;-68